メインページ
METAR-TAF:

METAR-TAF

空港 :

サンティアゴ, チリ

アルトゥーロ・メリノ・ベニテス国際空港

緯度: 33-23S, 経度: 070-47W, 海抜: 475m

現時点の気象観測

当レポートは23分前の21:00(UTC)に作成
の風 9kt
気温 16°C
湿度 59%
気圧 1016 hPa
視程10km以上
高度17000ftの千切れ雲あり

METAR: SCEL 202100Z 17009KT 9999 BKN170 16/08 Q1016 NOSIG

時間: 18:23 (21:23 UTC)

予報

当レポートは2時間48分前の18:35(UTC)に作成
予報は20日の 18時(UTC)から 21日の 18時(UTC)まで有効
の風 12kt
視程10km以上
高度16000ftの千切れ雲あり
21日の 00時(UTC)から 21日の 02時(UTC)まで徐々に
南/南東の風 4kt
高度18000ftの雲はほとんどない
21日の 08時(UTC)から 21日の 14時(UTC)まで一時的に
変向風 4kt
視程: 7000m
21日の 15時(UTC)から 21日の 17時(UTC)まで徐々に
南/南西の風 7kt
視程10km以上
1,500メートル以下は雲なし、積乱雲なし

TAF: SCEL 201835Z 2018/2118 18012KT 9999 BKN160 TX17/2019Z TN07/ 2110Z BECMG 2100/2102 16004KT FEW180 TEMPO 2108/2114 VRB04KT 7000 NSC BECMG 2115/2117 20007KT CAVOK

4,000以上の空港の気象観測と天気予報(METAR報とTAF報)

利用可能な観測所は地図上に黄色い丸と赤い丸で示す。

丸の上にカーソルを重ねると観測所名を参照できる。

次にクリックすると気象観測と天気予報を参照できる。

マップの切り替え:黒色「×」印の緑ボタンをクリックして拡大、「-」印の緑ボタンをクリックして縮小、緑色の三角印をクリックして隣りの地図に切り替え


METAR-TAF: